Terminal Aerodrome Forecast
Issued by NWS

Home | Current Version | Previous Version | Text Only | Print | Product List | Glossary On
Versions: 1 2 3 4 5 6 7 8 9 10 11 12 13 14 15 16 17 18 19 20 21 22 23 24 25 26 27 28 29 30 31
000
FTUS45 KBOU 261124
TAFAPA
TAF
KAPA 261124Z 2612/2712 24010KT P6SM FEW020 SCT070
     FM261500 31008KT P6SM SCT070 BKN110
     FM261900 02012KT P6SM SCT050 BKN080 PROB30 2621/2624 -SHRA
      BKN050
     FM270000 35012G20KT P6SM VCSH SCT015 OVC040
      TEMPO 2700/2704 -SHRA OVC015
     FM270900 29008KT P6SM SCT040 BKN080=

USA.gov is the U.S. government's official web portal to all federal, state and local government web resources and services.